createdAt,value
2019-04-07T00:01:18.466Z,45.83
2019-04-07T00:03:47.363Z,42.48
2019-04-07T00:06:16.278Z,44.48
2019-04-07T00:08:45.393Z,46.83
2019-04-07T00:11:13.964Z,45.00
2019-04-07T00:13:42.658Z,47.08
2019-04-07T00:16:11.220Z,57.30
2019-04-07T00:18:40.047Z,50.25
2019-04-07T00:21:08.717Z,43.50
2019-04-07T00:23:37.581Z,41.13
2019-04-07T00:26:06.546Z,40.85
2019-04-07T00:28:35.194Z,38.80
2019-04-07T00:31:04.221Z,38.90
2019-04-07T00:33:33.443Z,50.40
2019-04-07T00:36:02.775Z,43.17
2019-04-07T00:38:31.655Z,55.78
2019-04-07T00:41:00.247Z,49.33
2019-04-07T00:43:31.955Z,40.63
2019-04-07T00:48:31.120Z,41.88
2019-04-07T00:51:00.297Z,39.30
2019-04-07T00:53:29.995Z,41.33
2019-04-07T00:55:59.440Z,45.58
2019-04-07T00:58:28.179Z,45.05
2019-04-07T01:00:57.231Z,43.13
2019-04-07T01:03:26.037Z,38.60
2019-04-07T01:05:54.587Z,43.95
2019-04-07T01:08:23.310Z,43.87
2019-04-07T01:10:52.485Z,42.65
2019-04-07T01:13:20.870Z,35.23
2019-04-07T01:15:49.754Z,39.42
2019-04-07T01:18:18.594Z,43.92
2019-04-07T01:20:47.524Z,43.20
2019-04-07T01:23:16.234Z,42.90
2019-04-07T01:25:45.700Z,44.80
2019-04-07T01:28:14.879Z,48.05
2019-04-07T01:30:43.447Z,40.67
2019-04-07T01:33:12.756Z,48.05
2019-04-07T01:35:48.090Z,44.25
2019-04-07T01:40:43.533Z,40.45
2019-04-07T01:46:23.003Z,39.13
2019-04-07T01:48:59.856Z,43.02
2019-04-07T01:52:07.337Z,40.67
2019-04-07T01:54:52.624Z,37.78
2019-04-07T01:57:45.291Z,48.63
2019-04-07T02:00:28.006Z,57.20
2019-04-07T02:03:09.965Z,51.98
2019-04-07T02:06:01.746Z,43.63
2019-04-07T02:08:41.736Z,39.18
2019-04-07T02:11:19.527Z,46.43
2019-04-07T02:14:13.840Z,35.43
2019-04-07T02:17:02.049Z,44.80
2019-04-07T02:19:53.449Z,47.80
2019-04-07T02:22:40.798Z,43.70
2019-04-07T02:25:32.609Z,43.38
2019-04-07T02:28:20.985Z,42.33
2019-04-07T02:31:24.948Z,45.60
2019-04-07T02:34:07.310Z,62.53
2019-04-07T02:36:48.492Z,49.08
2019-04-07T02:39:35.081Z,53.45
2019-04-07T02:42:25.071Z,48.02
2019-04-07T02:45:25.088Z,42.93
2019-04-07T02:48:13.886Z,44.73
2019-04-07T02:51:13.993Z,41.08
2019-04-07T02:54:00.735Z,45.67
2019-04-07T02:56:48.981Z,47.15
2019-04-07T02:59:42.658Z,50.23
2019-04-07T03:02:17.782Z,46.80
2019-04-07T03:05:04.803Z,46.88
2019-04-07T03:07:48.726Z,42.20
2019-04-07T03:10:29.949Z,50.83
2019-04-07T03:13:24.502Z,56.15
2019-04-07T03:16:04.308Z,48.70
2019-04-07T03:18:52.933Z,40.52
2019-04-07T03:21:48.347Z,49.75
2019-04-07T03:24:43.311Z,51.45
2019-04-07T03:27:51.385Z,45.10
2019-04-07T03:30:42.783Z,47.55
2019-04-07T03:33:33.472Z,48.05
2019-04-07T03:37:09.728Z,54.10
2019-04-07T03:39:34.057Z,49.58
2019-04-07T03:42:28.477Z,51.65
2019-04-07T03:45:06.225Z,45.08
2019-04-07T03:47:41.894Z,44.73
2019-04-07T03:50:18.638Z,52.65
2019-04-07T03:53:12.779Z,49.33
2019-04-07T03:56:10.271Z,58.20
2019-04-07T03:58:49.424Z,47.25
2019-04-07T04:01:37.127Z,58.85
2019-04-07T04:04:24.463Z,47.70
2019-04-07T04:07:28.356Z,52.67
2019-04-07T04:10:10.189Z,47.33
2019-04-07T04:13:14.304Z,56.75
2019-04-07T04:15:48.141Z,50.10
2019-04-07T04:18:16.713Z,58.95
2019-04-07T04:20:46.355Z,47.38
2019-04-07T04:23:14.968Z,51.13
2019-04-07T04:25:43.690Z,50.78
2019-04-07T04:28:12.176Z,53.92
2019-04-07T04:30:41.896Z,44.73
2019-04-07T04:33:10.989Z,67.25
2019-04-07T04:35:40.830Z,53.20
2019-04-07T04:38:10.274Z,51.83
2019-04-07T04:40:39.676Z,44.95
2019-04-07T04:43:10.374Z,47.13
2019-04-07T04:45:39.374Z,45.07
2019-04-07T04:48:08.727Z,54.60
2019-04-07T04:50:39.511Z,50.12
2019-04-07T04:53:09.344Z,50.33
2019-04-07T04:55:39.187Z,53.78
2019-04-07T04:58:09.556Z,45.63
2019-04-07T05:00:38.505Z,49.55
2019-04-07T05:03:19.418Z,46.30
2019-04-07T05:05:48.342Z,47.88
2019-04-07T05:08:17.582Z,55.65
2019-04-07T05:10:46.238Z,45.95
2019-04-07T05:13:15.015Z,56.92
2019-04-07T05:15:43.543Z,54.48
2019-04-07T05:18:12.248Z,46.92
2019-04-07T05:20:40.939Z,48.65
2019-04-07T05:23:09.833Z,45.52
2019-04-07T05:25:38.254Z,56.63
2019-04-07T05:28:07.391Z,57.48
2019-04-07T05:30:36.610Z,51.98
2019-04-07T05:33:06.015Z,49.08
2019-04-07T05:35:35.075Z,50.50
2019-04-07T05:38:06.624Z,56.73
2019-04-07T05:40:34.609Z,49.13
2019-04-07T05:43:03.123Z,48.87
2019-04-07T05:45:31.600Z,54.98
2019-04-07T05:48:02.034Z,57.27
2019-04-07T05:50:31.841Z,58.98
2019-04-07T05:53:02.998Z,62.10
2019-04-07T05:55:32.055Z,60.48
2019-04-07T05:58:05.138Z,47.83
2019-04-07T06:00:34.014Z,54.83
2019-04-07T06:03:07.139Z,52.00
2019-04-07T06:05:33.488Z,48.78
2019-04-07T06:08:18.733Z,51.55
2019-04-07T06:10:33.695Z,55.63
2019-04-07T06:13:03.135Z,50.58
2019-04-07T06:15:32.451Z,54.85
2019-04-07T06:18:02.765Z,50.85
2019-04-07T06:20:31.482Z,55.17
2019-04-07T06:23:00.423Z,55.30
2019-04-07T06:25:34.726Z,60.20
2019-04-07T06:28:02.283Z,58.85
2019-04-07T06:30:32.905Z,57.53
2019-04-07T06:33:05.523Z,57.33
2019-04-07T06:35:32.419Z,55.38
2019-04-07T06:38:05.443Z,53.73
2019-04-07T06:40:32.398Z,56.40
2019-04-07T06:43:05.282Z,46.58
2019-04-07T06:45:39.989Z,49.35
2019-04-07T06:48:09.303Z,47.90
2019-04-07T06:50:49.862Z,52.48
2019-04-07T06:53:24.591Z,50.78
2019-04-07T06:56:33.471Z,65.95
2019-04-07T06:59:37.218Z,52.03
2019-04-07T07:02:22.467Z,51.30
2019-04-07T07:05:13.611Z,56.50
2019-04-07T07:08:13.327Z,49.03
2019-04-07T07:11:02.183Z,52.63
2019-04-07T07:13:55.376Z,49.40
2019-04-07T07:16:35.005Z,51.68
2019-04-07T07:19:28.575Z,51.05
2019-04-07T07:22:26.970Z,44.53
2019-04-07T07:24:59.022Z,47.08
2019-04-07T07:27:26.249Z,42.53
2019-04-07T07:29:55.502Z,47.83
2019-04-07T07:32:24.134Z,46.68
2019-04-07T07:34:52.832Z,43.73
2019-04-07T07:37:22.986Z,46.18
2019-04-07T07:39:51.993Z,49.05
2019-04-07T07:42:23.264Z,47.90
2019-04-07T07:44:51.460Z,41.98
2019-04-07T07:47:22.443Z,47.13
2019-04-07T07:49:50.955Z,49.42
2019-04-07T07:52:21.575Z,49.33
2019-04-07T07:54:53.527Z,53.73
2019-04-07T07:57:24.046Z,50.08
2019-04-07T07:59:52.794Z,45.52
2019-04-07T08:02:22.041Z,47.90
2019-04-07T08:04:51.094Z,44.88
2019-04-07T08:07:20.335Z,46.77
2019-04-07T08:09:49.395Z,39.18
2019-04-07T08:12:17.845Z,36.08
2019-04-07T08:14:49.724Z,43.98
2019-04-07T08:17:17.278Z,38.85
2019-04-07T08:19:46.645Z,39.48
2019-04-07T08:22:26.479Z,33.08
2019-04-07T08:24:50.174Z,36.15
2019-04-07T08:27:16.939Z,36.90
2019-04-07T08:29:46.234Z,40.92
2019-04-07T08:32:15.328Z,32.42
2019-04-07T08:34:44.761Z,30.52
2019-04-07T08:37:15.134Z,25.53
2019-04-07T08:39:44.637Z,29.27
2019-04-07T08:42:17.538Z,27.75
2019-04-07T08:44:45.162Z,26.50
2019-04-07T08:47:19.095Z,25.97
2019-04-07T08:49:44.391Z,23.65
2019-04-07T08:52:13.457Z,31.52
2019-04-07T08:54:42.225Z,25.05
2019-04-07T08:57:12.606Z,23.83
2019-04-07T08:59:42.993Z,24.92
2019-04-07T09:02:12.155Z,25.70
2019-04-07T09:04:41.341Z,30.15
2019-04-07T09:07:10.320Z,25.15
2019-04-07T09:09:44.985Z,25.60
2019-04-07T09:12:10.361Z,26.73
2019-04-07T09:14:40.723Z,26.33
2019-04-07T09:17:30.666Z,29.52
2019-04-07T09:20:17.921Z,31.40
2019-04-07T09:22:55.010Z,27.27
2019-04-07T09:25:42.968Z,24.65
2019-04-07T09:28:23.378Z,28.70
2019-04-07T09:31:16.510Z,29.37
2019-04-07T09:33:57.178Z,27.93
2019-04-07T09:36:41.950Z,24.82
2019-04-07T09:39:22.487Z,21.87
2019-04-07T09:42:11.943Z,24.70
2019-04-07T09:45:02.201Z,21.80
2019-04-07T09:47:51.233Z,21.25
2019-04-07T09:50:39.721Z,30.80
2019-04-07T09:53:27.336Z,18.30
2019-04-07T09:56:02.770Z,19.85
2019-04-07T09:58:53.570Z,21.60
2019-04-07T10:01:45.020Z,22.07
2019-04-07T10:04:29.945Z,18.20
2019-04-07T10:07:17.359Z,18.32
2019-04-07T10:10:12.297Z,21.23
2019-04-07T10:12:55.461Z,23.95
2019-04-07T10:15:44.249Z,28.20
2019-04-07T10:18:33.807Z,21.25
2019-04-07T10:24:15.275Z,20.60
2019-04-07T10:26:54.056Z,19.57
2019-04-07T10:29:38.555Z,17.65
2019-04-07T10:32:27.833Z,22.13
2019-04-07T10:35:18.984Z,18.20
2019-04-07T10:37:56.977Z,20.10
2019-04-07T10:40:37.951Z,20.52
2019-04-07T10:43:22.874Z,22.40
2019-04-07T10:45:57.940Z,17.32
2019-04-07T10:48:49.910Z,20.32
2019-04-07T10:51:36.883Z,18.65
2019-04-07T10:54:23.394Z,22.93
2019-04-07T10:57:05.041Z,22.02
2019-04-07T10:59:55.718Z,21.57
2019-04-07T11:03:03.141Z,24.45
2019-04-07T11:05:54.956Z,21.35
2019-04-07T11:08:46.621Z,24.25
2019-04-07T11:11:25.701Z,20.37
2019-04-07T11:14:11.819Z,21.55
2019-04-07T11:17:10.050Z,23.83
2019-04-07T11:19:54.978Z,20.75
2019-04-07T11:22:41.677Z,25.30
2019-04-07T11:25:31.633Z,24.95
2019-04-07T11:28:19.656Z,24.05
2019-04-07T11:30:57.434Z,22.60
2019-04-07T11:33:48.411Z,23.85
2019-04-07T11:36:37.403Z,17.98
2019-04-07T11:39:32.637Z,18.82
2019-04-07T11:42:11.854Z,20.25
2019-04-07T11:45:06.224Z,33.45
2019-04-07T11:47:44.937Z,26.60
2019-04-07T11:50:21.200Z,19.70
2019-04-07T11:52:56.265Z,25.97
2019-04-07T11:55:46.476Z,25.02
2019-04-07T11:58:33.706Z,23.18
2019-04-07T12:01:27.147Z,19.85
2019-04-07T12:04:14.994Z,17.20
2019-04-07T12:07:01.062Z,18.80
2019-04-07T12:09:46.734Z,20.57
2019-04-07T12:12:26.572Z,17.35
2019-04-07T12:15:25.794Z,23.00
2019-04-07T12:18:16.842Z,26.82
2019-04-07T12:20:52.937Z,17.35
2019-04-07T12:23:38.688Z,17.80
2019-04-07T12:26:18.905Z,22.95
2019-04-07T12:29:05.902Z,23.25
2019-04-07T12:31:53.213Z,21.45
2019-04-07T12:34:37.491Z,29.60
2019-04-07T12:37:24.392Z,17.77
2019-04-07T12:40:12.829Z,19.60
2019-04-07T12:43:02.512Z,20.88
2019-04-07T12:45:53.857Z,16.50
2019-04-07T12:48:50.066Z,24.35
2019-04-07T12:51:30.846Z,30.05
2019-04-07T12:54:20.707Z,18.40
2019-04-07T12:57:20.782Z,20.77
2019-04-07T13:00:02.794Z,24.17
2019-04-07T13:02:54.396Z,24.23
2019-04-07T13:05:46.323Z,21.25
2019-04-07T13:08:24.614Z,20.52
2019-04-07T13:11:36.251Z,23.60
2019-04-07T13:14:24.542Z,19.48
2019-04-07T13:17:19.456Z,21.65
2019-04-07T13:20:08.332Z,24.05
2019-04-07T13:22:45.564Z,23.77
2019-04-07T13:25:31.297Z,22.22
2019-04-07T13:28:08.352Z,22.55
2019-04-07T13:30:54.885Z,21.35
2019-04-07T13:33:49.090Z,25.32
2019-04-07T13:36:25.364Z,18.57
2019-04-07T13:39:12.513Z,17.35
2019-04-07T13:42:01.050Z,15.98
2019-04-07T13:44:49.648Z,24.25
2019-04-07T13:47:34.079Z,18.92
2019-04-07T13:50:23.536Z,23.20
2019-04-07T13:53:14.791Z,19.65
2019-04-07T13:55:55.289Z,19.07
2019-04-07T14:01:31.315Z,18.87
2019-04-07T14:04:37.792Z,23.77
2019-04-07T14:07:29.544Z,19.07
2019-04-07T14:10:27.481Z,18.50
2019-04-07T14:13:06.247Z,14.47
2019-04-07T14:15:57.689Z,18.48
2019-04-07T14:18:46.822Z,16.12
2019-04-07T14:21:30.650Z,23.57
2019-04-07T14:24:25.128Z,19.60
2019-04-07T14:27:15.841Z,19.98
2019-04-07T14:30:00.196Z,21.35
2019-04-07T14:32:50.984Z,18.90
2019-04-07T14:35:51.546Z,16.70
2019-04-07T14:38:48.245Z,26.97
2019-04-07T14:41:33.287Z,17.87
2019-04-07T14:44:22.473Z,17.02
2019-04-07T14:47:19.817Z,21.45
2019-04-07T14:50:12.108Z,25.10
2019-04-07T14:53:03.179Z,25.25
2019-04-07T14:58:58.154Z,15.88
2019-04-07T15:01:46.894Z,19.92
2019-04-07T15:06:47.632Z,21.80
2019-04-07T15:09:34.964Z,19.52
2019-04-07T15:12:17.629Z,25.57
2019-04-07T15:14:42.723Z,22.15
2019-04-07T15:17:12.062Z,20.85
2019-04-07T15:19:40.886Z,17.90
2019-04-07T15:22:09.680Z,25.65
2019-04-07T15:24:39.538Z,24.25
2019-04-07T15:27:08.409Z,17.80
2019-04-07T15:29:41.378Z,18.65
2019-04-07T15:34:39.500Z,19.87
2019-04-07T15:39:38.038Z,21.15
2019-04-07T15:44:39.658Z,20.72
2019-04-07T15:49:36.728Z,21.40
2019-04-07T15:52:08.165Z,17.40
2019-04-07T15:57:04.630Z,23.70
2019-04-07T15:59:34.171Z,22.40
2019-04-07T16:02:02.987Z,21.07
2019-04-07T16:07:05.156Z,19.70
2019-04-07T16:09:41.077Z,19.87
2019-04-07T16:12:06.366Z,24.75
2019-04-07T16:14:35.296Z,29.70
2019-04-07T16:17:05.665Z,23.52
2019-04-07T16:22:04.589Z,23.00
2019-04-07T16:24:33.110Z,18.67
2019-04-07T16:27:04.503Z,22.90
2019-04-07T16:29:33.014Z,24.72
2019-04-07T16:32:01.935Z,30.20
2019-04-07T16:34:30.884Z,27.48
2019-04-07T16:37:00.402Z,28.07
2019-04-07T16:39:33.568Z,27.07
2019-04-07T16:42:02.047Z,33.92
2019-04-07T16:44:30.856Z,38.45
2019-04-07T16:47:03.908Z,32.13
2019-04-07T16:49:31.542Z,34.80
2019-04-07T16:52:02.191Z,40.40
2019-04-07T16:54:32.519Z,33.42
2019-04-07T16:57:01.951Z,35.35
2019-04-07T16:59:33.872Z,49.53
2019-04-07T17:02:03.752Z,39.95
2019-04-07T17:04:35.018Z,40.28
2019-04-07T17:07:08.887Z,48.68
2019-04-07T17:09:36.644Z,46.75
2019-04-07T17:12:09.341Z,41.83
2019-04-07T17:14:36.317Z,42.88
2019-04-07T17:17:05.851Z,36.25
2019-04-07T17:19:35.840Z,40.30
2019-04-07T17:22:04.682Z,36.85
2019-04-07T17:24:33.446Z,40.83
2019-04-07T17:27:03.124Z,34.13
2019-04-07T17:29:32.340Z,41.25
2019-04-07T17:32:02.422Z,45.70
2019-04-07T17:34:32.474Z,35.83
2019-04-07T17:37:01.541Z,39.30
2019-04-07T17:39:40.478Z,52.45
2019-04-07T17:42:12.180Z,51.70
2019-04-07T17:45:13.115Z,36.65
2019-04-07T17:48:17.126Z,39.50
2019-04-07T17:51:07.318Z,45.95
2019-04-07T17:53:55.465Z,37.77
2019-04-07T17:56:43.560Z,37.05
2019-04-07T17:59:37.787Z,42.33
2019-04-07T18:02:17.452Z,47.45
2019-04-07T18:05:06.543Z,40.70
2019-04-07T18:07:53.102Z,46.85
2019-04-07T18:10:40.111Z,34.53
2019-04-07T18:13:49.894Z,44.48
2019-04-07T18:16:42.911Z,53.58
2019-04-07T18:19:49.428Z,46.77
2019-04-07T18:22:46.390Z,41.00
2019-04-07T18:25:36.922Z,37.25
2019-04-07T18:28:21.496Z,31.73
2019-04-07T18:31:02.998Z,27.95
2019-04-07T18:33:51.733Z,34.15
2019-04-07T18:36:38.599Z,27.90
2019-04-07T18:39:27.558Z,30.43
2019-04-07T18:42:22.587Z,32.57
2019-04-07T18:45:19.596Z,36.83
2019-04-07T18:48:11.350Z,40.12
2019-04-07T18:50:58.752Z,33.33
2019-04-07T18:53:44.027Z,36.98
2019-04-07T18:56:35.007Z,44.75
2019-04-07T18:59:21.503Z,41.35
2019-04-07T19:02:16.553Z,42.08
2019-04-07T19:05:08.227Z,43.30
2019-04-07T19:07:59.467Z,48.58
2019-04-07T19:10:38.953Z,40.90
2019-04-07T19:13:17.376Z,37.80
2019-04-07T19:16:19.553Z,36.17
2019-04-07T19:19:12.623Z,48.78
2019-04-07T19:22:00.432Z,48.70
2019-04-07T19:24:49.551Z,42.38
2019-04-07T19:27:59.986Z,39.55
2019-04-07T19:30:48.475Z,51.37
2019-04-07T19:33:34.460Z,66.80
2019-04-07T19:36:25.332Z,61.02
2019-04-07T19:42:09.025Z,64.15
2019-04-07T19:45:04.650Z,58.08
2019-04-07T19:47:59.325Z,56.42
2019-04-07T19:50:50.823Z,52.80
2019-04-07T19:53:45.586Z,46.80
2019-04-07T19:56:45.926Z,45.85
2019-04-07T19:59:33.961Z,42.73
2019-04-07T20:02:22.672Z,44.58
2019-04-07T20:05:12.311Z,49.18
2019-04-07T20:08:02.881Z,48.35
2019-04-07T20:10:51.892Z,53.45
2019-04-07T20:13:39.582Z,48.42
2019-04-07T20:16:19.804Z,49.45
2019-04-07T20:18:59.908Z,42.65
2019-04-07T20:21:53.640Z,36.83
2019-04-07T20:24:54.116Z,35.67
2019-04-07T20:27:56.008Z,43.80
2019-04-07T20:30:45.612Z,47.75
2019-04-07T20:33:43.419Z,42.38
2019-04-07T20:36:34.664Z,42.55
2019-04-07T20:39:15.059Z,41.63
2019-04-07T20:42:03.050Z,45.15
2019-04-07T20:44:59.962Z,38.13
2019-04-07T20:47:39.007Z,44.58
2019-04-07T20:50:26.356Z,36.55
2019-04-07T20:53:22.232Z,48.35
2019-04-07T20:56:01.563Z,50.65
2019-04-07T20:58:56.669Z,49.40
2019-04-07T21:01:33.633Z,48.73
2019-04-07T21:04:19.932Z,54.65
2019-04-07T21:07:13.855Z,57.70
2019-04-07T21:09:55.510Z,53.48
2019-04-07T21:12:48.338Z,53.55
2019-04-07T21:15:33.817Z,66.00
2019-04-07T21:18:34.428Z,67.37
2019-04-07T21:21:41.638Z,70.85
2019-04-07T21:24:28.113Z,71.47
2019-04-07T21:27:06.608Z,77.82
2019-04-07T21:29:54.980Z,71.15
2019-04-07T21:32:42.929Z,70.28
2019-04-07T21:35:24.433Z,80.65
2019-04-07T21:38:21.844Z,75.45
2019-04-07T21:40:59.835Z,77.03
2019-04-07T21:43:40.445Z,79.85
2019-04-07T21:46:27.039Z,76.07
2019-04-07T21:49:11.979Z,78.83
2019-04-07T21:52:08.045Z,63.83
2019-04-07T21:54:46.736Z,73.65
2019-04-07T21:57:57.047Z,67.75
2019-04-07T22:00:41.746Z,65.80
2019-04-07T22:03:29.015Z,84.60
2019-04-07T22:06:30.807Z,73.30
2019-04-07T22:09:14.695Z,71.25
2019-04-07T22:11:45.044Z,70.30
2019-04-07T22:14:14.675Z,72.75
2019-04-07T22:16:43.193Z,67.08
2019-04-07T22:19:14.758Z,62.78
2019-04-07T22:21:42.734Z,67.62
2019-04-07T22:24:11.383Z,70.62
2019-04-07T22:26:40.586Z,87.57
2019-04-07T22:29:09.819Z,70.80
2019-04-07T22:31:58.251Z,71.57
2019-04-07T22:34:29.838Z,77.62
2019-04-07T22:36:57.958Z,70.80
2019-04-07T22:39:28.842Z,75.15
2019-04-07T22:41:58.268Z,70.03
2019-04-07T22:44:27.032Z,67.80
2019-04-07T22:46:56.455Z,68.57
2019-04-07T22:49:28.609Z,70.92
2019-04-07T22:54:29.511Z,81.37
2019-04-07T22:56:56.659Z,64.62
2019-04-07T22:59:25.978Z,67.85
2019-04-07T23:01:55.707Z,57.70
2019-04-07T23:04:24.420Z,64.55
2019-04-07T23:06:53.194Z,66.42
2019-04-07T23:09:21.937Z,70.90
2019-04-07T23:11:52.729Z,69.00
2019-04-07T23:14:21.328Z,77.80
2019-04-07T23:16:50.063Z,68.17
2019-04-07T23:19:18.767Z,65.65
2019-04-07T23:21:47.447Z,70.17
2019-04-07T23:24:17.132Z,79.62
2019-04-07T23:26:45.673Z,80.93
2019-04-07T23:29:14.423Z,79.05
2019-04-07T23:31:44.063Z,74.07
2019-04-07T23:34:12.847Z,74.85
2019-04-07T23:36:41.434Z,76.55
2019-04-07T23:39:09.994Z,77.75
2019-04-07T23:41:39.417Z,76.72
2019-04-07T23:44:08.066Z,70.22
2019-04-07T23:46:37.046Z,74.72
2019-04-07T23:49:05.828Z,77.62
2019-04-07T23:51:35.151Z,79.17
2019-04-07T23:54:09.156Z,74.80
2019-04-07T23:56:39.513Z,74.27
2019-04-07T23:59:08.860Z,84.40
